Timeline UpdatesTrip UpdatesNews PostsPvt PostsTravel TipsAdmin PostsConv PostsFollowed PostsChat RequestsBlog PostsPNR Posts

Disclaimer
Search
 
 
Tue Sep 16, 2014 06:21:29 ISTHomeTrainsΣChainsAtlasPNRForumGalleryNewsFAQTripsMembersLoginFeedback
No Recent News for this Train
Other Trains in the News **new
Latest...
.
Fri Feb 28, 2014 (07:32PM)
⇐ Return Journey: Train# 19216

19215/Saurashtra Express

Time-Table HAS CHANGED.
Sep 03 (10:13PM)
Change Departure Station:
Change Arrival Station:
Post a Train Travel TipPost a Train Travel Tip **new
Post a Comment/Question/Picture/VideoPost a Comment/Question/Picture/Video
Pantry/Catering
✕ NO Pantry Car
✓ Catering Avbl
RSA - Rake Sharing
Rake/Coach Composition
ENG - SLR - GEN - GEN - GEN - FC1 - B1 - S4 - S3 - S2 - S1 - LD - GEN - RMS - GEN - GEN - GEN - SLR - Milk van
Loco
BCT-ADI: BRC WAP-4/ ADI-PBR: VTA WDM-3A
News    PNR    Forum    Time-Table    Availability    Fare Chart    Map    Arr/Dep History    Trips    Gallery    ΣChains    X/O    Timeline    
Travel Time: 11h 40m    23 halts    Distance: 508 km    Avg Speed: 43 km/hr
Type: Mail/Express
Zone: WR/Western
Departs @ 18:10 (Avg 17m late)
Platform# ???
SMTWTFS
Nadiad Junction/ND 
Arrives @ 05:50 +1 night (Avg 1m late)
Platform# 1
SMTWTFS
Porbandar/PBR 

23 halts. 75 intermediate Stations between Nadiad Junction and Porbandar

Show ALL intermediate Stations  Show Old Time-Table

#CodeStation NameX/OArrivesAvgDepartsAvgHaltPFDay#KmSpeedElevZoneAddress
1BCTMumbai Central (9)  -08:20+131-447.1363mWRMumbai 400008, Maharashtra
2DDRMumbai Dadar Western (6)  08:30+408:32+52m31-441.1556mWRMumbai, Maharashtra
3BVIMumbai Borivali (8)X  09:00 08:58+709:02+82 4m41-417.45019mWRMumbai - 400092, Maharashtra
4BSRVasai Road (7)  09:25 09:23+409:27+42 4m41-400.0467mWRVasai 401202, Maharashtra
5VRVirar (8)  09:38+509:40+52m31-391.6656mWRDist. Palghar, Maharashtra
6SAHSaphale (2)X  09:55+909:57+92m11-375.3748mWRDist. Palghar, Maharashtra
7PLGPalghar (3)X  10:09+1010:11+102m--1-360.46819mWRPalghar, Maharashtra
8BORBoisar (3)X  10:21+1110:23+112m21-349.26217mWRBoisar Tel.no-02525-266626, Maharashtra
9DRDDahanu Road (5)X  10:43 10:44+1010:45 10:46+102m--1-327.57412mWRDahanu, Maharashtra
10GVDGholvad (4)X  10:55+1110:57+102m--1-316.36914mWRGholvad, Maharashtra
11UBRUmbargam Road (3)  11:08 11:05+911:10 11:07+92m11-307.14030mWRUmbergaon, Gujarat
12SJNSanjan (3)X  11:19 11:15+811:21 11:17+82m--1-301.87722mWRSanjan, Gujarat
13BLDBhilad (3)X11:34 11:26+611:36 11:29+62 3m--1-290.26233mWRBhilad, Gujarat
14VAPIVapi (3)X  11:40+1111:42+122m11-278.94827mWRVapi, Gujarat
15UVDUdvada (3)X  11:54+1211:56+112m--1-269.36018mWRUdvada, Gujarat
16PADPardi (3)  12:02+1212:04+132m--1-263.44319mWRValsad, Gujarat
17BLValsad (3)X  12:23 12:19+712:25 12:24+132 5m11-252.76015mWRValsad, Gujarat
18BIMBilimora Junction (4)  12:45 12:42+1112:47 12:44+112m11-234.85611mWRBilimora, Gujarat
19AMLAmalsad (3)  12:53 12:50+1212:55 12:52+122m--1-229.29412mWRAmalsad, Gujarat
20NVSNavsari (3)X  13:08 13:02+1313:10 13:07+142 5m11-213.65114mWRNavsari, Gujarat
21MRLMaroli (3)  13:21 13:17+1513:23 13:20+162 3m11-205.16415mWRMaroli, Gujarat
22UDNUdhna Junction (3)X  13:40 13:36+1913:42 13:38+192m11-188.0916mWRUdhna 394210, Gujarat
23STSurat (4)X  14:10 14:05+414:15+55 10m11-184.05919mWRSurat 395001, Gujarat
24SYNSayan (3)  14:29+1714:31+162m--1-170.38521mWRSayan Satellite town, Gujarat
25KIMKim (2)X  14:38+1814:40+172m--1-160.45818mWRNH 8, Gujarat
26KSBKosamba Junction (3)X  14:48+1814:50+182m--1-152.67130mWRKosamba, Gujarat
27PAOPanoli (3)  14:57+2014:59+192m--1-144.46929mWRPanoli, Gujarat
28AKVAnkleshwar Junction (4)  15:08+2015:10+202m11-134.04319mWRAnkleshwar, Gujarat
29BHBharuch Junction (5)  15:23+1915:25+202m31-124.76619mWRBharuch, Gujarat
30NIUNabipur (3)X  15:36+2315:38+222m--1-112.68024mWRNabipur, Gujarat
31PLJPalej (4)X  15:48+2515:50+252m--1-99.38329mWRPalej, Gujarat
32MYGMiyagam Karjan (2)  16:01+2416:03+232m21-84.07029mWRKarjan, Gujarat
33ITAItola (4)  16:13+2616:15+262m--1-72.44827mWRNational Highway 8 Vadodara, Gujarat
34VSVishvamitri (4)XO  16:34+2816:36+282m--1-57.2930mWRVadodara, Gujarat
35BRCVadodara Junction (7)X  16:55+2017:00+215m41-54.25036mWRVadodara 390005, Gujarat
36VDAVasad Junction (3)X  17:24+2517:26+252m21-34.05240mWRVasad, Gujarat
37ANNDAnand Junction (6)  17:44+1717:46+202m--1-18.45644mWRAnand, Gujarat
38KBRVKanjari Boriyavi Junction (4)X  17:54+4717:56+472m--1-11.05539mWRKanjari, Gujarat
39ND»Nadiad Junction (4)»O  18:08+1718:10+172m--10.05037mWRNadiad, Gujarat
40MHDMahemdavad Kheda Road (4)XO  18:31+2518:33+252m3117.65737mWRMahemdavad, Gujarat
41BJDBarejadi Nandej (3)O  18:45+2718:47+272m--128.93542mWRBareja-Barejadi Rd, Gujarat
42MANManinagar (2)X  19:21 19:10+019:23 19:12+02m1142.4750mWRAhmadabad, Gujarat
43ADIAhmedabad Junction (12)XO19:40+1420:00+1920m6145.61951mWRAhmedabad, Gujarat
44SBTSabarmati Junction (3) new halt!!  20:17+2120:19+232m--151.03852mWRAhmedabad, Gujarat
45CLDYChandlodiya  20:28+2120:30+212m--156.66859mWRAhmedabad, Gujarat
46ABDAmbli RoadX  20:35+2120:37+212m--162.37050mWRAhmedabad, Gujarat
47SAUSanand  20:47+2420:49+242m--173.95840mWRSanand, Gujarat
48CEChharodi  21:00+2321:02+232m--184.67029mWRSH 17, Gujarat
49JKAJakhvadaX  21:14+2521:16+242m--198.63031mWRState Highway 17, Gujarat
50VGViramgam Junction (5)X  21:41+1521:43+172m11110.95129mWRViramgam, Gujarat
51SUNRSurendranagar Junction (4)  22:58 23:00+2923:00 23:05+302 5m11176.56872mWRSurendra Nagar, Gujarat
52THANThan Junction (3)  23:45 23:47+3023:47 23:49+322m11224.261138mWRThangadh, Gujarat
53WKRWankaner Junction (4)X  00:13 00:15+3400:15 00:20+352 5m--2250.84387mWRWankaner, Gujarat
54RJTRajkot Junction (5)X  01:18+1601:24+196m32292.565128mWRRajkot, Gujarat
55HAPAHapa (3)X  02:32 02:34+1502:34 02:36+152m--2368.44316mWRJamnagar, Gujarat
56JAMJamnagar (2)X  02:46 02:48+1402:48 02:53+152 5m--2377.15014mWRJamnagar, Gujarat
57LPJLalpur Jam  03:44 03:46+1903:46 03:47+182 1m--2421.15776mWRLalpur, Gujarat
58GOPGop Jam  04:03 04:05+2004:05 04:06+192 1m--2438.262126mWRState Highway 27, Gujarat
59BNVDBhanvad  04:22 04:24+2004:24 04:25+192 1m--2456.65755mWRBhanvad, Gujarat
60WSJWansjaliya  04:44+1804:45+191m--2474.86055mWRTarsai - Vansjaliya, Gujarat
61SKRSakhpur  04:50 04:52-04:52 04:53-2 1m--2481.83055mWRto railway station, Gujarat
62RWORanavav  05:18 05:20+1305:20 05:21+142 1m--2495.12837mWRRanavav, Gujarat
63PBR•Porbandar•  05:50+1-12508.4-7mWRPorbandar, Gujarat
Scroll to Top
Scroll to Bottom